Time;durP1;ratioP1;P1;durP2;ratioP2;P2;SDS_P1;SDS_P2;PMS_P1;PMS_P2;Temp;Humidity;BMP_temperature;BMP_pressure;BME280_temperature;BME280_humidity;BME280_pressure;Samples;Min_cycle;Max_cycle;Signal;HPM_P1;HPM_P2
2022/05/04 00:00:03;;;;;;;;;;;21.30;52.20;;;;;;5095790;28;19924;-46
2022/05/04 00:02:30;;;;;;;;;;;21.30;52.20;;;;;;5096242;28;20307;-46
2022/05/04 00:04:57;;;;;;;;;;;21.30;52.20;;;;;;5095888;28;19925;-47
2022/05/04 00:07:24;;;;;;;;;;;21.30;52.20;;;;;;5095592;28;19938;-46
2022/05/04 00:09:51;;;;;;;;;;;21.30;52.20;;;;;;5109438;28;19924;-46
2022/05/04 00:12:19;;;;;;;;;;;21.30;52.20;;;;;;5116337;28;20538;-46
2022/05/04 00:14:46;;;;;;;;;;;21.30;52.20;;;;;;5116482;28;19924;-47
2022/05/04 00:17:13;;;;;;;;;;;21.30;52.20;;;;;;5104594;28;19923;-47
2022/05/04 00:19:40;;;;;;;;;;;21.30;52.20;;;;;;5095931;28;19974;-48
2022/05/04 00:22:07;;;;;;;;;;;21.30;52.20;;;;;;5095283;28;19931;-46
2022/05/04 00:24:34;;;;;;;;;;;21.30;52.20;;;;;;5095182;28;20490;-46
2022/05/04 00:27:01;;;;;;;;;;;21.30;52.70;;;;;;5095515;28;19925;-46
2022/05/04 00:29:28;;;;;;;;;;;21.30;52.20;;;;;;5095340;28;19931;-46
2022/05/04 00:31:55;;;;;;;;;;;21.30;52.10;;;;;;5095272;28;19931;-49
2022/05/04 00:34:22;;;;;;;;;;;21.30;52.20;;;;;;5095234;28;19931;-46
2022/05/04 00:36:49;;;;;;;;;;;21.30;52.10;;;;;;5095447;28;19924;-46
2022/05/04 00:39:16;;;;;;;;;;;21.30;52.10;;;;;;5110700;28;19923;-48
2022/05/04 00:41:43;;;;;;;;;;;21.30;52.10;;;;;;5111847;28;19932;-46
2022/05/04 00:44:10;;;;;;;;;;;21.30;52.10;;;;;;5079739;28;19932;-46
2022/05/04 00:46:37;;;;;;;;;;;21.30;52.10;;;;;;5075013;28;19924;-46
2022/05/04 00:49:04;;;;;;;;;;;21.30;52.10;;;;;;5075165;28;19930;-45
2022/05/04 00:51:32;;;;;;;;;;;21.30;52.10;;;;;;5091033;28;19931;-46
2022/05/04 00:54:00;;;;;;;;;;;21.30;52.20;;;;;;5095167;28;20307;-47
2022/05/04 00:56:27;;;;;;;;;;;21.30;52.10;;;;;;5094226;28;20395;-48
2022/05/04 00:58:56;;;;;;;;;;;21.30;52.10;;;;;;5095261;28;19995;-47
2022/05/04 01:01:27;;;;;;;;;;;21.30;52.10;;;;;;5094823;28;19928;-46
2022/05/04 01:03:55;;;;;;;;;;;21.30;52.10;;;;;;5095259;28;19924;-46
2022/05/04 01:06:23;;;;;;;;;;;21.30;52.70;;;;;;5095142;28;19925;-49
2022/05/04 01:08:50;;;;;;;;;;;21.30;52.10;;;;;;5089503;28;19986;-50
2022/05/04 01:11:17;;;;;;;;;;;21.30;52.10;;;;;;5074736;28;19947;-46
2022/05/04 01:14:17;;;;;;;;;;;21.30;52.10;;;;;;5088411;28;19928;-47
2022/05/04 01:16:45;;;;;;;;;;;21.30;52.10;;;;;;5032515;28;20023;-47
2022/05/04 01:19:12;;;;;;;;;;;21.30;52.10;;;;;;5015684;28;19925;-46
2022/05/04 01:21:40;;;;;;;;;;;21.30;52.10;;;;;;5031819;28;20389;-46
2022/05/04 01:24:07;;;;;;;;;;;21.30;52.10;;;;;;5032136;28;19936;-46
2022/05/04 01:26:35;;;;;;;;;;;21.30;52.10;;;;;;5031917;28;19929;-47
2022/05/04 01:29:03;;;;;;;;;;;21.30;52.10;;;;;;5031918;28;20377;-47
2022/05/04 01:31:33;;;;;;;;;;;21.20;52.00;;;;;;5032088;28;20011;-48
2022/05/04 01:34:00;;;;;;;;;;;21.30;52.10;;;;;;5032102;28;19930;-47
2022/05/04 01:36:27;;;;;;;;;;;21.30;52.10;;;;;;5031642;28;20467;-48
2022/05/04 01:38:54;;;;;;;;;;;21.20;52.00;;;;;;5031359;28;19939;-51
2022/05/04 01:44:07;;;;;;;;;;;21.30;52.10;;;;;;5031828;28;20403;-46
2022/05/04 01:46:34;;;;;;;;;;;21.30;52.10;;;;;;5035820;28;19924;-47
2022/05/04 01:49:01;;;;;;;;;;;21.30;52.10;;;;;;5051143;28;19932;-46
2022/05/04 01:51:28;;;;;;;;;;;21.30;52.10;;;;;;5054224;28;20034;-47
2022/05/04 01:53:55;;;;;;;;;;;21.20;52.00;;;;;;5073776;28;19924;-47
2022/05/04 01:56:22;;;;;;;;;;;21.30;52.10;;;;;;5080956;28;19924;-48
2022/05/04 01:58:49;;;;;;;;;;;21.20;52.00;;;;;;5094139;28;19924;-47
2022/05/04 02:01:16;;;;;;;;;;;21.20;52.00;;;;;;5093458;28;20424;-46
2022/05/04 02:03:43;;;;;;;;;;;21.20;52.00;;;;;;5093791;28;19969;-52
2022/05/04 02:06:11;;;;;;;;;;;21.30;52.10;;;;;;5093681;28;19932;-46
2022/05/04 02:08:38;;;;;;;;;;;21.30;52.10;;;;;;5091064;28;19978;-46
2022/05/04 02:11:05;;;;;;;;;;;21.30;52.10;;;;;;5093722;28;19924;-48
2022/05/04 02:13:32;;;;;;;;;;;21.20;52.00;;;;;;5093502;28;19924;-46
2022/05/04 02:15:59;;;;;;;;;;;21.20;52.00;;;;;;5093476;28;20375;-50
2022/05/04 02:18:26;;;;;;;;;;;21.20;52.00;;;;;;5093310;28;19924;-46
2022/05/04 02:20:53;;;;;;;;;;;21.30;52.10;;;;;;5093863;28;19932;-50
2022/05/04 02:23:20;;;;;;;;;;;21.30;52.70;;;;;;5093355;28;20276;-51
2022/05/04 02:25:47;;;;;;;;;;;21.20;52.00;;;;;;5093169;28;19924;-50
2022/05/04 02:28:14;;;;;;;;;;;21.20;52.00;;;;;;5093347;28;19923;-46
2022/05/04 02:30:41;;;;;;;;;;;21.20;52.00;;;;;;5093563;28;19924;-52
2022/05/04 02:33:08;;;;;;;;;;;21.20;52.00;;;;;;5093385;28;19924;-47
2022/05/04 02:38:21;;;;;;;;;;;21.20;52.00;;;;;;5100277;28;19927;-47
2022/05/04 02:40:49;;;;;;;;;;;21.20;52.00;;;;;;5113625;28;19930;-47
2022/05/04 02:43:16;;;;;;;;;;;21.20;52.00;;;;;;5096718;28;19931;-48
2022/05/04 02:45:43;;;;;;;;;;;21.20;52.00;;;;;;5092994;28;19924;-49
2022/05/04 02:48:10;;;;;;;;;;;21.20;52.00;;;;;;5075625;28;20422;-49
2022/05/04 02:50:37;;;;;;;;;;;21.20;52.00;;;;;;5093043;28;20343;-52
2022/05/04 02:53:04;;;;;;;;;;;21.20;52.00;;;;;;5093132;28;19925;-50
2022/05/04 02:55:31;;;;;;;;;;;21.20;52.00;;;;;;5092809;28;19924;-49
2022/05/04 02:57:58;;;;;;;;;;;21.20;52.00;;;;;;5092948;28;19924;-46
2022/05/04 03:00:25;;;;;;;;;;;21.20;52.00;;;;;;5092733;28;19930;-49
2022/05/04 03:02:54;;;;;;;;;;;21.20;52.00;;;;;;5092898;28;19936;-50
2022/05/04 03:05:21;;;;;;;;;;;21.20;52.00;;;;;;5086464;28;19948;-51
2022/05/04 03:07:49;;;;;;;;;;;21.20;52.00;;;;;;5072956;28;19947;-51
2022/05/04 03:10:16;;;;;;;;;;;21.20;52.00;;;;;;5072892;28;20280;-53
2022/05/04 03:12:43;;;;;;;;;;;21.20;52.00;;;;;;5091572;28;19931;-53
2022/05/04 03:15:10;;;;;;;;;;;21.20;52.00;;;;;;5092992;28;20299;-47
2022/05/04 03:17:37;;;;;;;;;;;21.20;52.60;;;;;;5092795;28;19928;-47
2022/05/04 03:20:05;;;;;;;;;;;21.20;52.00;;;;;;5096090;28;19938;-45
2022/05/04 03:22:32;;;;;;;;;;;21.20;52.00;;;;;;5096505;28;19924;-46
2022/05/04 03:25:00;;;;;;;;;;;21.20;52.00;;;;;;5096782;28;19924;-46
2022/05/04 03:27:27;;;;;;;;;;;21.20;52.00;;;;;;5097002;28;19977;-46
2022/05/04 03:30:01;;;;;;;;;;;21.20;52.00;;;;;;5096600;28;19928;-46
2022/05/04 03:32:28;;;;;;;;;;;21.20;52.00;;;;;;5096426;28;19924;-46
2022/05/04 03:34:56;;;;;;;;;;;21.20;52.00;;;;;;5096625;28;19924;-46
2022/05/04 03:37:23;;;;;;;;;;;21.20;52.00;;;;;;5096077;28;19935;-45
2022/05/04 03:39:50;;;;;;;;;;;21.20;52.00;;;;;;5102191;28;19924;-46
2022/05/04 03:42:17;;;;;;;;;;;21.20;52.00;;;;;;5078681;28;19987;-46
2022/05/04 03:44:46;;;;;;;;;;;21.20;52.00;;;;;;5096542;28;19928;-48
2022/05/04 03:47:13;;;;;;;;;;;21.20;52.00;;;;;;5096505;28;19924;-46
2022/05/04 03:49:40;;;;;;;;;;;21.20;52.00;;;;;;5096500;28;19935;-46
2022/05/04 03:52:08;;;;;;;;;;;21.20;52.00;;;;;;5096260;28;19930;-46
2022/05/04 03:54:35;;;;;;;;;;;21.20;52.00;;;;;;5096389;28;19928;-48
2022/05/04 03:57:03;;;;;;;;;;;21.20;52.00;;;;;;5096104;28;19924;-46
2022/05/04 03:59:31;;;;;;;;;;;21.20;52.00;;;;;;5095865;28;19977;-46
2022/05/04 04:01:58;;;;;;;;;;;21.20;52.00;;;;;;5096330;28;19947;-46
2022/05/04 04:04:25;;;;;;;;;;;21.20;52.00;;;;;;5096204;28;20284;-47
2022/05/04 04:06:52;;;;;;;;;;;21.20;51.90;;;;;;5095922;28;19931;-47
2022/05/04 04:09:19;;;;;;;;;;;21.20;52.00;;;;;;5086495;28;19932;-46
2022/05/04 04:11:46;;;;;;;;;;;21.20;51.90;;;;;;5075868;28;19924;-45
2022/05/04 04:14:13;;;;;;;;;;;21.20;52.50;;;;;;5075954;28;20431;-46
2022/05/04 04:16:40;;;;;;;;;;;21.20;51.90;;;;;;5075571;28;19931;-45
2022/05/04 04:19:09;;;;;;;;;;;21.20;51.90;;;;;;5075353;28;19924;-46
2022/05/04 04:21:52;;;;;;;;;;;21.20;51.90;;;;;;5075227;28;20026;-45
2022/05/04 04:24:20;;;;;;;;;;;21.20;51.90;;;;;;5075252;28;19974;-47
2022/05/04 04:26:47;;;;;;;;;;;21.20;51.80;;;;;;5075348;28;20445;-51
2022/05/04 04:29:15;;;;;;;;;;;21.20;51.90;;;;;;5091659;28;19924;-47
2022/05/04 04:31:42;;;;;;;;;;;21.30;52.00;;;;;;5094699;28;20342;-46
2022/05/04 04:34:10;;;;;;;;;;;21.20;51.80;;;;;;5095781;28;19930;-46
2022/05/04 04:36:40;;;;;;;;;;;21.20;51.80;;;;;;5093386;28;19977;-46
2022/05/04 04:39:07;;;;;;;;;;;21.20;51.80;;;;;;5109580;28;19927;-45
2022/05/04 04:41:34;;;;;;;;;;;21.30;52.00;;;;;;5113073;28;19930;-47
2022/05/04 04:44:01;;;;;;;;;;;21.30;51.90;;;;;;5095274;28;19928;-48
2022/05/04 04:46:29;;;;;;;;;;;21.30;51.90;;;;;;5077117;28;19931;-49
2022/05/04 04:48:58;;;;;;;;;;;21.20;51.80;;;;;;5095262;28;20376;-46
2022/05/04 04:51:25;;;;;;;;;;;21.30;51.80;;;;;;5095114;28;19974;-47
2022/05/04 04:53:52;;;;;;;;;;;21.30;51.80;;;;;;5095054;28;19924;-47
2022/05/04 04:56:19;;;;;;;;;;;21.30;51.80;;;;;;5094720;28;20377;-46
2022/05/04 04:58:46;;;;;;;;;;;21.30;51.80;;;;;;5094614;28;19977;-46
2022/05/04 05:01:13;;;;;;;;;;;21.30;51.80;;;;;;5095244;28;19924;-46
2022/05/04 05:03:40;;;;;;;;;;;21.30;51.80;;;;;;5094593;28;19973;-47
2022/05/04 05:06:07;;;;;;;;;;;21.30;51.80;;;;;;5095098;28;19924;-48
2022/05/04 05:08:34;;;;;;;;;;;21.30;51.70;;;;;;5091434;28;20395;-47
2022/05/04 05:11:01;;;;;;;;;;;21.30;51.70;;;;;;5074579;28;19973;-50
2022/05/04 05:13:28;;;;;;;;;;;21.30;51.70;;;;;;5074028;28;19930;-48
2022/05/04 05:16:07;;;;;;;;;;;21.30;51.60;;;;;;5074419;28;19932;-49
2022/05/04 05:18:35;;;;;;;;;;;21.30;51.60;;;;;;5074218;28;19928;-47
2022/05/04 05:21:03;;;;;;;;;;;21.40;51.70;;;;;;5074146;28;19939;-47
2022/05/04 05:23:30;;;;;;;;;;;21.40;51.70;;;;;;5073837;28;19924;-47
2022/05/04 05:25:57;;;;;;;;;;;21.40;51.60;;;;;;5094250;28;19924;-48
2022/05/04 05:28:24;;;;;;;;;;;21.40;51.60;;;;;;5094726;28;19928;-47
2022/05/04 05:30:51;;;;;;;;;;;21.40;51.60;;;;;;5093927;28;19989;-46
2022/05/04 05:33:18;;;;;;;;;;;21.40;51.60;;;;;;5092829;28;20003;-47
2022/05/04 05:35:45;;;;;;;;;;;21.40;51.50;;;;;;5094712;28;19970;-47
2022/05/04 05:38:12;;;;;;;;;;;21.40;51.50;;;;;;5100209;28;19935;-46
2022/05/04 05:40:39;;;;;;;;;;;21.40;51.50;;;;;;5112761;28;19924;-46
2022/05/04 05:43:06;;;;;;;;;;;21.40;51.50;;;;;;5093690;28;19924;-46
2022/05/04 05:45:33;;;;;;;;;;;21.40;51.50;;;;;;5093769;28;19931;-47
2022/05/04 05:48:00;;;;;;;;;;;21.40;52.00;;;;;;5093971;28;19978;-46
2022/05/04 05:50:27;;;;;;;;;;;21.40;51.40;;;;;;5093535;28;19934;-46
2022/05/04 05:52:54;;;;;;;;;;;21.40;51.40;;;;;;5093919;28;19932;-46
2022/05/04 05:55:21;;;;;;;;;;;21.50;51.50;;;;;;5077080;28;20269;-46
2022/05/04 05:57:48;;;;;;;;;;;21.50;51.50;;;;;;5073660;28;19925;-46
2022/05/04 06:00:15;;;;;;;;;;;21.50;51.40;;;;;;5082084;28;20023;-49
2022/05/04 06:02:43;;;;;;;;;;;21.50;51.40;;;;;;5094037;28;20345;-46
2022/05/04 06:05:10;;;;;;;;;;;21.50;51.40;;;;;;5093769;28;20439;-45
2022/05/04 06:07:37;;;;;;;;;;;21.50;51.40;;;;;;5093410;28;20309;-46
2022/05/04 06:10:05;;;;;;;;;;;21.50;51.40;;;;;;5109297;28;19923;-49
2022/05/04 06:12:32;;;;;;;;;;;21.50;51.40;;;;;;5095823;28;19934;-46
2022/05/04 06:14:59;;;;;;;;;;;21.50;51.30;;;;;;5113879;28;19923;-48
2022/05/04 06:17:26;;;;;;;;;;;21.50;51.30;;;;;;5114143;28;20341;-50
2022/05/04 06:19:53;;;;;;;;;;;21.60;51.30;;;;;;5112993;28;20459;-53
2022/05/04 06:22:21;;;;;;;;;;;21.60;51.20;;;;;;5093317;28;20007;-50
2022/05/04 06:24:48;;;;;;;;;;;21.60;51.10;;;;;;5093347;28;20273;-52
2022/05/04 06:27:15;;;;;;;;;;;21.60;51.10;;;;;;5092082;28;19924;-49
2022/05/04 06:35:13;;;;;;;;;;;21.70;50.90;;;;;;5093155;28;19928;-48
2022/05/04 06:37:40;;;;;;;;;;;21.70;50.90;;;;;;5075931;28;20388;-47
2022/05/04 06:40:07;;;;;;;;;;;21.70;50.80;;;;;;5093413;28;20296;-47
2022/05/04 06:42:34;;;;;;;;;;;21.80;50.70;;;;;;5093042;28;20033;-47
2022/05/04 06:45:02;;;;;;;;;;;21.80;50.60;;;;;;5093103;28;19931;-49
2022/05/04 06:47:29;;;;;;;;;;;21.80;50.50;;;;;;5093094;28;19924;-48
2022/05/04 06:49:56;;;;;;;;;;;21.90;50.50;;;;;;5089942;28;20388;-46
2022/05/04 06:52:26;;;;;;;;;;;22.00;50.40;;;;;;5072696;28;19924;-47
2022/05/04 06:54:53;;;;;;;;;;;22.00;50.30;;;;;;5079216;28;19925;-47
2022/05/04 06:57:21;;;;;;;;;;;22.00;50.20;;;;;;5079292;28;19925;-47
2022/05/04 06:59:48;;;;;;;;;;;22.10;50.20;;;;;;5084842;28;19967;-46
2022/05/04 07:02:16;;;;;;;;;;;22.10;50.10;;;;;;5099764;28;20006;-46
2022/05/04 07:04:43;;;;;;;;;;;22.10;50.10;;;;;;5100023;28;19969;-46
2022/05/04 07:07:11;;;;;;;;;;;22.10;50.00;;;;;;5099842;28;19924;-48
2022/05/04 07:09:38;;;;;;;;;;;22.10;49.90;;;;;;5087570;28;19924;-49
2022/05/04 07:12:05;;;;;;;;;;;22.10;49.90;;;;;;5079955;28;20296;-47
2022/05/04 07:14:32;;;;;;;;;;;22.10;49.80;;;;;;5079586;28;19948;-49
2022/05/04 07:16:59;;;;;;;;;;;22.20;50.20;;;;;;5086501;28;20380;-48
2022/05/04 07:19:26;;;;;;;;;;;22.10;49.80;;;;;;5099639;28;20007;-46
2022/05/04 07:21:53;;;;;;;;;;;22.10;49.80;;;;;;5099457;28;19931;-47
2022/05/04 07:24:20;;;;;;;;;;;22.10;49.80;;;;;;5097616;28;19924;-46
2022/05/04 07:26:47;;;;;;;;;;;22.10;49.80;;;;;;5099737;28;19924;-52
2022/05/04 07:29:14;;;;;;;;;;;22.10;49.90;;;;;;5099703;28;20290;-46
2022/05/04 07:31:42;;;;;;;;;;;22.10;49.80;;;;;;5099064;28;20034;-50
2022/05/04 07:34:10;;;;;;;;;;;22.10;49.90;;;;;;5100000;28;20309;-47
2022/05/04 07:36:37;;;;;;;;;;;22.10;49.90;;;;;;5099728;28;19928;-46
2022/05/04 07:39:04;;;;;;;;;;;22.00;49.90;;;;;;5113169;28;19946;-47
2022/05/04 07:44:17;;;;;;;;;;;22.00;49.90;;;;;;5119395;28;20027;-48
2022/05/04 07:46:45;;;;;;;;;;;22.00;50.50;;;;;;5099630;28;19924;-48
2022/05/04 07:49:12;;;;;;;;;;;22.00;50.00;;;;;;5099603;28;19935;-47
2022/05/04 07:51:39;;;;;;;;;;;22.00;50.00;;;;;;5080925;28;19930;-46
2022/05/04 07:54:07;;;;;;;;;;;22.00;49.90;;;;;;5098934;28;19928;-47
2022/05/04 07:56:35;;;;;;;;;;;22.00;49.90;;;;;;5098966;28;19935;-48
2022/05/04 07:59:01;;;;;;;;;;;22.00;49.90;;;;;;5099253;28;19924;-50
2022/05/04 08:04:17;;;;;;;;;;;22.00;49.90;;;;;;5099083;28;19924;-49
2022/05/04 08:06:44;;;;;;;;;;;22.00;49.90;;;;;;5078453;28;19924;-51
2022/05/04 08:09:12;;;;;;;;;;;22.00;49.80;;;;;;5096328;28;20361;-52
2022/05/04 08:11:40;;;;;;;;;;;22.10;49.90;;;;;;5096031;28;20333;-47
2022/05/04 08:14:08;;;;;;;;;;;22.10;49.90;;;;;;5096122;28;20008;-48
2022/05/04 08:16:36;;;;;;;;;;;22.10;49.90;;;;;;5095725;28;19928;-48
2022/05/04 08:19:03;;;;;;;;;;;22.10;49.80;;;;;;5095852;28;20310;-48
2022/05/04 08:21:30;;;;;;;;;;;22.10;49.80;;;;;;5093337;28;20458;-46
2022/05/04 08:23:58;;;;;;;;;;;22.10;49.80;;;;;;5095374;28;19924;-46
2022/05/04 08:26:40;;;;;;;;;;;22.10;49.80;;;;;;5095413;28;19924;-46
2022/05/04 08:29:07;;;;;;;;;;;22.10;49.80;;;;;;5095602;28;19930;-47
2022/05/04 08:31:38;;;;;;;;;;;22.10;49.80;;;;;;5095032;28;19974;-48
2022/05/04 08:34:08;;;;;;;;;;;22.10;49.70;;;;;;5095242;28;19931;-47
2022/05/04 08:36:38;;;;;;;;;;;22.10;49.60;;;;;;5095344;28;19928;-46
2022/05/04 08:39:06;;;;;;;;;;;22.10;49.60;;;;;;5108614;28;19923;-54
2022/05/04 08:41:35;;;;;;;;;;;22.20;49.70;;;;;;5115823;28;19924;-47
2022/05/04 08:44:04;;;;;;;;;;;22.20;49.60;;;;;;5099238;28;19928;-50
2022/05/04 08:46:32;;;;;;;;;;;22.20;49.50;;;;;;5095059;28;19928;-48
2022/05/04 08:48:59;;;;;;;;;;;22.20;49.50;;;;;;5095528;28;19924;-49
2022/05/04 08:51:27;;;;;;;;;;;22.20;49.50;;;;;;5094553;28;19928;-48
2022/05/04 08:53:54;;;;;;;;;;;22.30;49.50;;;;;;5095138;28;19924;-49
2022/05/04 08:56:21;;;;;;;;;;;22.20;49.40;;;;;;5095220;28;20323;-47
2022/05/04 08:58:48;;;;;;;;;;;22.30;49.40;;;;;;5094717;28;19924;-47
2022/05/04 09:01:15;;;;;;;;;;;22.30;49.40;;;;;;5094509;28;19924;-47
2022/05/04 09:03:42;;;;;;;;;;;22.30;49.40;;;;;;5095001;28;19928;-47
2022/05/04 09:06:09;;;;;;;;;;;22.30;49.30;;;;;;5094827;28;19924;-48
2022/05/04 09:09:10;;;;;;;;;;;22.30;49.30;;;;;;5092025;28;20074;-47
2022/05/04 09:11:38;;;;;;;;;;;22.30;49.30;;;;;;5094521;28;20272;-48
2022/05/04 09:14:12;;;;;;;;;;;22.40;49.30;;;;;;5094843;28;19925;-47
2022/05/04 09:16:40;;;;;;;;;;;22.40;49.30;;;;;;5092517;28;19927;-51
2022/05/04 09:19:08;;;;;;;;;;;22.40;49.30;;;;;;5094353;28;19924;-47
2022/05/04 09:21:35;;;;;;;;;;;22.40;49.20;;;;;;5093846;28;19935;-47
2022/05/04 09:24:02;;;;;;;;;;;22.40;49.20;;;;;;5094548;28;19928;-46
2022/05/04 09:26:29;;;;;;;;;;;22.40;49.10;;;;;;5094178;28;20337;-47
2022/05/04 09:29:01;;;;;;;;;;;22.40;49.10;;;;;;5094407;28;19924;-48
2022/05/04 09:31:28;;;;;;;;;;;22.50;49.10;;;;;;5094048;28;19924;-48
2022/05/04 09:33:57;;;;;;;;;;;22.50;49.10;;;;;;5094619;28;19924;-50
2022/05/04 09:36:32;;;;;;;;;;;22.50;49.10;;;;;;5094716;28;19924;-46
2022/05/04 09:44:57;;;;;;;;;;;22.50;49.00;;;;;;5094222;28;19924;-46
2022/05/04 09:47:26;;;;;;;;;;;22.50;49.10;;;;;;5093804;28;19924;-47
2022/05/04 09:50:00;;;;;;;;;;;22.50;49.00;;;;;;5093868;28;19932;-46
2022/05/04 09:52:28;;;;;;;;;;;22.50;49.10;;;;;;5076226;28;19977;-46
2022/05/04 09:54:58;;;;;;;;;;;22.50;49.20;;;;;;5093686;28;19924;-46
2022/05/04 09:57:26;;;;;;;;;;;22.40;49.10;;;;;;5094020;28;19924;-46
2022/05/04 09:59:57;;;;;;;;;;;22.40;49.20;;;;;;5093683;28;20009;-47
2022/05/04 10:02:24;;;;;;;;;;;22.40;49.30;;;;;;5093688;28;19924;-47
2022/05/04 10:04:52;;;;;;;;;;;22.40;49.30;;;;;;5093433;28;19924;-48
2022/05/04 10:07:19;;;;;;;;;;;22.40;49.40;;;;;;5093827;28;19924;-47
2022/05/04 10:09:46;;;;;;;;;;;22.30;49.30;;;;;;5080066;28;20372;-46
2022/05/04 10:12:14;;;;;;;;;;;22.30;49.40;;;;;;5074251;28;19932;-48
2022/05/04 10:14:43;;;;;;;;;;;22.30;49.40;;;;;;5093572;28;19985;-47
2022/05/04 10:17:11;;;;;;;;;;;22.30;49.50;;;;;;5093527;28;19930;-46
2022/05/04 10:19:44;;;;;;;;;;;22.20;49.40;;;;;;5093376;28;20025;-47
2022/05/04 10:22:15;;;;;;;;;;;22.20;49.50;;;;;;5092902;28;19930;-46
2022/05/04 10:24:42;;;;;;;;;;;22.20;49.50;;;;;;5092731;28;19924;-46
2022/05/04 10:27:17;;;;;;;;;;;22.20;49.50;;;;;;5093313;28;20423;-46
2022/05/04 10:32:51;;;;;;;;;;;22.20;49.60;;;;;;5093276;28;19930;-46
2022/05/04 10:35:21;;;;;;;;;;;22.20;49.60;;;;;;5093109;28;19947;-47
2022/05/04 10:37:57;;;;;;;;;;;22.20;49.70;;;;;;5096230;28;19923;-47
2022/05/04 10:40:25;;;;;;;;;;;22.20;49.70;;;;;;5113751;28;20264;-46
2022/05/04 10:42:56;;;;;;;;;;;22.20;49.70;;;;;;5114041;28;19924;-46
2022/05/04 10:45:28;;;;;;;;;;;22.20;49.70;;;;;;5104540;28;19927;-46
2022/05/04 10:48:12;;;;;;;;;;;22.20;49.70;;;;;;5093485;28;19947;-47
2022/05/04 10:50:58;;;;;;;;;;;22.10;49.70;;;;;;5092896;28;19928;-46
2022/05/04 10:53:24;;;;;;;;;;;22.10;49.70;;;;;;5092888;28;19928;-46
2022/05/04 10:56:04;;;;;;;;;;;22.20;49.80;;;;;;5093264;28;19924;-46
2022/05/04 10:58:31;;;;;;;;;;;22.20;49.80;;;;;;5093059;28;19939;-46
2022/05/04 11:01:05;;;;;;;;;;;22.20;49.80;;;;;;5092950;28;20382;-47
2022/05/04 11:03:33;;;;;;;;;;;22.20;49.80;;;;;;5072936;28;19925;-49
2022/05/04 11:06:23;;;;;;;;;;;22.20;49.80;;;;;;5072620;28;19932;-46
2022/05/04 11:08:51;;;;;;;;;;;22.20;49.90;;;;;;5066810;28;19964;-46
2022/05/04 11:11:19;;;;;;;;;;;22.20;49.90;;;;;;5092804;28;19931;-46
2022/05/04 11:13:46;;;;;;;;;;;22.20;49.90;;;;;;5092835;28;20414;-46
2022/05/04 11:16:15;;;;;;;;;;;22.20;50.50;;;;;;5093110;28;19928;-46
2022/05/04 11:18:42;;;;;;;;;;;22.10;49.80;;;;;;5092785;28;20392;-46
2022/05/04 11:21:10;;;;;;;;;;;22.20;49.90;;;;;;5092389;28;19978;-48
2022/05/04 11:23:37;;;;;;;;;;;22.20;49.90;;;;;;5092480;28;19924;-46
2022/05/04 11:26:05;;;;;;;;;;;22.10;49.80;;;;;;5093115;28;19931;-50
2022/05/04 11:28:33;;;;;;;;;;;22.20;50.00;;;;;;5092628;28;19930;-48
2022/05/04 11:31:00;;;;;;;;;;;22.20;49.90;;;;;;5092779;28;19931;-49
2022/05/04 11:33:27;;;;;;;;;;;22.10;49.80;;;;;;5092658;28;20015;-54
2022/05/04 11:35:54;;;;;;;;;;;22.20;50.00;;;;;;5092608;28;19934;-48
2022/05/04 11:38:22;;;;;;;;;;;22.10;49.80;;;;;;5100351;28;19938;-49
2022/05/04 11:40:50;;;;;;;;;;;22.20;50.00;;;;;;5115860;28;20018;-51
2022/05/04 11:43:46;;;;;;;;;;;22.10;49.80;;;;;;5116713;28;19946;-49
2022/05/04 11:46:13;;;;;;;;;;;22.10;49.80;;;;;;5077054;28;19924;-48
2022/05/04 11:48:42;;;;;;;;;;;22.10;49.90;;;;;;5096729;28;20322;-49
2022/05/04 11:51:10;;;;;;;;;;;22.10;49.80;;;;;;5095926;28;19924;-51
2022/05/04 11:53:37;;;;;;;;;;;22.20;50.00;;;;;;5095807;28;19928;-47
2022/05/04 11:56:05;;;;;;;;;;;22.20;50.00;;;;;;5096258;28;19963;-50
2022/05/04 11:58:33;;;;;;;;;;;22.20;50.00;;;;;;5096084;28;19924;-49
2022/05/04 12:01:00;;;;;;;;;;;22.20;50.00;;;;;;5095813;28;19924;-50
2022/05/04 12:03:29;;;;;;;;;;;22.20;50.00;;;;;;5095572;28;19959;-51
2022/05/04 12:05:56;;;;;;;;;;;22.10;49.90;;;;;;5095879;28;19928;-48
2022/05/04 12:08:23;;;;;;;;;;;22.10;49.90;;;;;;5094329;28;20296;-48
2022/05/04 12:10:51;;;;;;;;;;;22.10;49.90;;;;;;5075627;28;19924;-47
2022/05/04 12:13:23;;;;;;;;;;;22.10;49.90;;;;;;5075886;28;19925;-49
2022/05/04 12:15:52;;;;;;;;;;;22.20;50.00;;;;;;5088594;28;19924;-49
2022/05/04 12:18:19;;;;;;;;;;;22.20;50.00;;;;;;5096065;28;19986;-51
2022/05/04 12:20:46;;;;;;;;;;;22.20;50.00;;;;;;5095713;28;19924;-50
2022/05/04 12:23:14;;;;;;;;;;;22.10;49.90;;;;;;5095648;28;19924;-50
2022/05/04 12:25:43;;;;;;;;;;;22.10;49.90;;;;;;5095864;28;19924;-46
2022/05/04 12:28:10;;;;;;;;;;;22.10;49.90;;;;;;5068631;28;19928;-48
2022/05/04 12:33:34;;;;;;;;;;;22.10;49.90;;;;;;5075694;28;19925;-47
2022/05/04 12:36:04;;;;;;;;;;;22.10;50.10;;;;;;5075642;28;20248;-51
2022/05/04 12:38:35;;;;;;;;;;;22.20;50.00;;;;;;5093438;28;19947;-51
2022/05/04 12:41:02;;;;;;;;;;;22.20;50.00;;;;;;5115637;28;19931;-47
2022/05/04 12:43:32;;;;;;;;;;;22.10;49.90;;;;;;5115729;28;19930;-49
2022/05/04 12:45:59;;;;;;;;;;;22.20;50.00;;;;;;5101759;28;20341;-48
2022/05/04 12:48:30;;;;;;;;;;;22.10;49.90;;;;;;5095074;28;20400;-47
2022/05/04 12:50:58;;;;;;;;;;;22.10;49.90;;;;;;5094688;28;19985;-49
2022/05/04 12:53:25;;;;;;;;;;;22.20;50.00;;;;;;5094761;28;19928;-51
2022/05/04 12:58:38;;;;;;;;;;;22.10;49.90;;;;;;5095288;28;19931;-53
2022/05/04 13:01:05;;;;;;;;;;;22.20;50.00;;;;;;5092813;28;19977;-48
2022/05/04 13:03:33;;;;;;;;;;;22.20;50.00;;;;;;5094860;28;19928;-47
2022/05/04 13:06:00;;;;;;;;;;;22.20;50.00;;;;;;5094956;28;19931;-47
2022/05/04 13:08:27;;;;;;;;;;;22.20;49.90;;;;;;5092898;28;19931;-47
2022/05/04 13:10:54;;;;;;;;;;;22.20;49.90;;;;;;5078295;28;19928;-46
2022/05/04 13:13:22;;;;;;;;;;;22.20;49.90;;;;;;5094955;28;19924;-46
2022/05/04 13:15:52;;;;;;;;;;;22.20;49.80;;;;;;5094515;28;19931;-48
2022/05/04 13:18:20;;;;;;;;;;;22.20;49.80;;;;;;5094847;28;19924;-46
2022/05/04 13:20:48;;;;;;;;;;;22.20;49.80;;;;;;5094230;28;19927;-46
2022/05/04 13:23:15;;;;;;;;;;;22.20;49.80;;;;;;5094679;28;19935;-47
2022/05/04 13:25:42;;;;;;;;;;;22.20;49.80;;;;;;5075133;28;20261;-46
2022/05/04 13:28:09;;;;;;;;;;;22.20;49.80;;;;;;5074155;28;19925;-47
2022/05/04 13:30:36;;;;;;;;;;;22.20;49.80;;;;;;5073850;28;19924;-48
2022/05/04 13:33:03;;;;;;;;;;;22.20;49.80;;;;;;5074427;28;20303;-46
2022/05/04 13:35:31;;;;;;;;;;;22.20;49.80;;;;;;5074197;28;19931;-47
2022/05/04 13:37:58;;;;;;;;;;;22.20;49.90;;;;;;5082425;28;19924;-47
2022/05/04 13:40:26;;;;;;;;;;;22.20;49.80;;;;;;5114554;28;19927;-49
2022/05/04 13:42:53;;;;;;;;;;;22.20;49.80;;;;;;5114868;28;19923;-47
2022/05/04 13:45:20;;;;;;;;;;;22.20;49.80;;;;;;5088208;28;19924;-47
2022/05/04 13:47:47;;;;;;;;;;;22.20;49.90;;;;;;5094016;28;19939;-48
2022/05/04 13:53:16;;;;;;;;;;;22.20;49.80;;;;;;5043708;28;19948;-49
2022/05/04 13:55:54;;;;;;;;;;;22.20;49.80;;;;;;5051367;28;19924;-47
2022/05/04 13:58:24;;;;;;;;;;;22.20;49.80;;;;;;5039166;28;19925;-46
2022/05/04 14:00:53;;;;;;;;;;;22.20;49.90;;;;;;5031314;28;19936;-49
2022/05/04 14:03:21;;;;;;;;;;;22.20;49.80;;;;;;5031124;28;19947;-47
2022/05/04 14:05:49;;;;;;;;;;;22.20;49.90;;;;;;5031642;28;19926;-47
2022/05/04 14:08:16;;;;;;;;;;;22.20;49.90;;;;;;5030981;28;19933;-46
2022/05/04 14:10:46;;;;;;;;;;;22.20;49.90;;;;;;5031617;28;19929;-47
2022/05/04 14:13:16;;;;;;;;;;;22.20;49.90;;;;;;5031599;28;19925;-46
2022/05/04 14:15:43;;;;;;;;;;;22.20;50.00;;;;;;5036357;28;19925;-51
2022/05/04 14:18:10;;;;;;;;;;;22.20;49.90;;;;;;5051086;28;20424;-46
2022/05/04 14:20:37;;;;;;;;;;;22.20;49.90;;;;;;5042277;28;19925;-51
2022/05/04 14:23:04;;;;;;;;;;;22.20;50.00;;;;;;5030932;28;20463;-46
2022/05/04 14:25:31;;;;;;;;;;;22.20;49.90;;;;;;5030849;28;20037;-48
2022/05/04 14:27:59;;;;;;;;;;;22.20;49.90;;;;;;5031066;28;20008;-49
2022/05/04 14:30:27;;;;;;;;;;;22.20;49.90;;;;;;5066189;28;20380;-47
2022/05/04 14:32:54;;;;;;;;;;;22.20;49.80;;;;;;5073445;28;19932;-46
2022/05/04 14:35:21;;;;;;;;;;;22.30;49.80;;;;;;5073486;28;20343;-47
2022/05/04 14:37:48;;;;;;;;;;;22.30;49.70;;;;;;5078701;28;20383;-50
2022/05/04 14:40:15;;;;;;;;;;;22.30;49.70;;;;;;5113781;28;19980;-48
2022/05/04 14:42:43;;;;;;;;;;;22.30;49.70;;;;;;5113685;28;19931;-48
2022/05/04 14:45:11;;;;;;;;;;;22.30;49.60;;;;;;5106792;28;19935;-47
2022/05/04 14:47:38;;;;;;;;;;;22.30;49.60;;;;;;5093356;28;20279;-49
2022/05/04 14:50:05;;;;;;;;;;;22.30;49.60;;;;;;5093325;28;19924;-48
2022/05/04 14:52:32;;;;;;;;;;;22.30;49.50;;;;;;5093000;28;20341;-52
2022/05/04 14:54:59;;;;;;;;;;;22.40;49.60;;;;;;5091434;28;19928;-47